createdAt,value
2019-05-16T00:00:40.600Z,0.90
2019-05-16T00:05:53.278Z,0.70
2019-05-16T00:10:48.829Z,0.97
2019-05-16T00:15:52.080Z,0.80
2019-05-16T00:20:54.986Z,1.00
2019-05-16T00:25:58.680Z,1.03
2019-05-16T00:31:02.224Z,0.77
2019-05-16T00:36:06.908Z,1.00
2019-05-16T00:41:10.582Z,1.00
2019-05-16T00:46:13.837Z,0.90
2019-05-16T00:51:18.341Z,1.03
2019-05-16T00:56:21.855Z,1.57
2019-05-16T01:01:24.825Z,0.90
2019-05-16T01:06:28.692Z,0.90
2019-05-16T01:11:31.985Z,1.13
2019-05-16T01:16:35.103Z,0.73
2019-05-16T01:21:39.088Z,0.77
2019-05-16T01:26:43.063Z,0.90
2019-05-16T01:31:48.377Z,1.30
2019-05-16T01:36:51.905Z,1.00
2019-05-16T01:41:55.480Z,0.87
2019-05-16T01:46:58.624Z,0.73
2019-05-16T01:52:02.137Z,0.60
2019-05-16T01:57:08.006Z,0.70
2019-05-16T02:02:11.243Z,0.93
2019-05-16T02:07:14.154Z,0.83
2019-05-16T02:12:18.509Z,0.90
2019-05-16T02:17:23.266Z,0.90
2019-05-16T02:22:28.390Z,1.10
2019-05-16T02:27:31.207Z,0.90
2019-05-16T02:32:33.840Z,0.97
2019-05-16T02:37:41.764Z,1.20
2019-05-16T02:42:42.967Z,0.90
2019-05-16T02:47:46.188Z,1.00
2019-05-16T02:52:51.770Z,0.67
2019-05-16T02:57:53.727Z,0.93
2019-05-16T03:03:01.207Z,1.00
2019-05-16T03:08:04.774Z,1.00
2019-05-16T03:13:11.177Z,0.90
2019-05-16T03:18:17.073Z,1.30
2019-05-16T03:23:21.851Z,1.00
2019-05-16T03:28:24.924Z,0.83
2019-05-16T03:33:38.964Z,1.20
2019-05-16T03:38:32.828Z,1.17
2019-05-16T03:43:36.440Z,1.43
2019-05-16T03:48:40.905Z,0.97
2019-05-16T03:53:44.397Z,1.10
2019-05-16T03:58:50.775Z,1.80
2019-05-16T04:03:52.746Z,0.83
2019-05-16T04:08:55.649Z,1.07
2019-05-16T04:14:01.403Z,1.57
2019-05-16T04:19:04.268Z,1.20
2019-05-16T04:24:07.651Z,1.10
2019-05-16T04:29:11.854Z,0.93
2019-05-16T04:34:25.627Z,0.80
2019-05-16T04:39:31.879Z,1.17
2019-05-16T04:44:33.324Z,1.37
2019-05-16T04:49:36.964Z,2.30
2019-05-16T04:54:41.999Z,2.00
2019-05-16T04:59:44.967Z,1.43
2019-05-16T05:04:50.845Z,0.83
2019-05-16T05:09:53.173Z,1.33
2019-05-16T05:14:56.239Z,1.50
2019-05-16T05:20:01.024Z,1.10
2019-05-16T05:25:05.117Z,1.40
2019-05-16T05:30:10.462Z,1.80
2019-05-16T05:35:14.272Z,1.50
2019-05-16T05:40:19.913Z,1.60
2019-05-16T05:45:22.666Z,1.60
2019-05-16T05:50:27.541Z,1.90
2019-05-16T05:55:31.421Z,2.50
2019-05-16T06:00:34.761Z,1.60
2019-05-16T06:05:38.034Z,1.80
2019-05-16T06:10:41.120Z,2.37
2019-05-16T06:15:43.757Z,1.60
2019-05-16T06:20:47.289Z,1.87
2019-05-16T06:25:51.047Z,1.53
2019-05-16T06:30:54.316Z,1.27
2019-05-16T06:35:57.127Z,1.43
2019-05-16T06:41:00.528Z,2.00
2019-05-16T06:46:03.889Z,1.47
2019-05-16T06:51:07.109Z,1.60
2019-05-16T06:56:10.452Z,1.90
2019-05-16T07:01:14.090Z,2.13
2019-05-16T07:06:36.050Z,2.53
2019-05-16T07:11:24.195Z,2.03
2019-05-16T07:16:29.832Z,1.70
2019-05-16T07:21:32.559Z,1.80
2019-05-16T07:26:36.031Z,1.20
2019-05-16T07:31:40.587Z,1.90
2019-05-16T07:36:43.487Z,1.83
2019-05-16T07:41:46.722Z,1.77
2019-05-16T07:46:51.574Z,1.07
2019-05-16T07:51:54.796Z,1.50
2019-05-16T07:57:09.594Z,1.70
2019-05-16T08:02:02.747Z,1.40
2019-05-16T08:07:06.001Z,0.90
2019-05-16T08:12:10.531Z,1.13
2019-05-16T08:17:14.407Z,1.30
2019-05-16T08:22:17.707Z,1.10
2019-05-16T08:27:20.976Z,0.90
2019-05-16T08:32:24.057Z,1.00
2019-05-16T08:37:42.777Z,1.37
2019-05-16T08:42:32.497Z,1.27
2019-05-16T08:47:35.516Z,1.10
2019-05-16T08:52:43.014Z,1.80
2019-05-16T08:57:43.490Z,1.20
2019-05-16T09:02:46.632Z,1.27
2019-05-16T09:07:49.799Z,1.30
2019-05-16T09:12:52.461Z,1.10
2019-05-16T09:17:57.942Z,1.47
2019-05-16T09:23:00.797Z,1.40
2019-05-16T09:28:04.120Z,1.33
2019-05-16T09:33:07.405Z,1.60
2019-05-16T09:38:10.140Z,2.13
2019-05-16T09:43:13.097Z,2.40
2019-05-16T09:48:19.006Z,1.63
2019-05-16T09:53:21.299Z,2.10
2019-05-16T09:58:24.212Z,1.90
2019-05-16T10:03:27.271Z,2.17
2019-05-16T10:08:30.463Z,1.50
2019-05-16T10:13:33.556Z,1.87
2019-05-16T10:18:37.078Z,1.63
2019-05-16T10:23:40.039Z,1.80
2019-05-16T10:28:46.655Z,2.07
2019-05-16T10:33:49.396Z,1.67
2019-05-16T10:38:52.583Z,1.80
2019-05-16T10:43:56.892Z,2.00
2019-05-16T10:49:00.490Z,1.50
2019-05-16T10:54:10.518Z,2.13
2019-05-16T10:59:50.256Z,1.80
2019-05-16T11:04:26.318Z,2.00
2019-05-16T11:09:18.193Z,2.00
2019-05-16T11:14:20.876Z,1.90
2019-05-16T11:19:25.600Z,2.17
2019-05-16T11:24:31.385Z,2.50
2019-05-16T11:29:36.653Z,2.00
2019-05-16T11:34:39.554Z,2.40
2019-05-16T11:39:42.880Z,2.57
2019-05-16T11:44:47.837Z,2.33
2019-05-16T11:49:51.358Z,2.23
2019-05-16T11:54:57.059Z,2.60
2019-05-16T11:59:59.397Z,2.60
2019-05-16T12:05:03.079Z,2.60
2019-05-16T12:10:07.640Z,2.10
2019-05-16T12:15:11.362Z,2.13
2019-05-16T12:20:16.667Z,1.80
2019-05-16T12:25:20.040Z,2.33
2019-05-16T12:30:23.469Z,2.23
2019-05-16T12:35:27.735Z,1.87
2019-05-16T12:40:31.351Z,1.80
2019-05-16T12:45:34.824Z,1.77
2019-05-16T12:50:38.901Z,1.80
2019-05-16T12:55:42.372Z,1.70
2019-05-16T13:00:54.013Z,2.03
2019-05-16T13:05:50.158Z,1.97
2019-05-16T13:10:53.106Z,1.63
2019-05-16T13:15:56.811Z,1.83
2019-05-16T13:21:00.410Z,1.80
2019-05-16T13:26:03.507Z,1.60
2019-05-16T13:31:07.720Z,1.70
2019-05-16T13:36:11.151Z,1.70
2019-05-16T13:41:14.304Z,1.43
2019-05-16T13:46:17.465Z,1.97
2019-05-16T13:51:20.672Z,1.77
2019-05-16T13:56:23.942Z,1.73
2019-05-16T14:01:27.880Z,1.23
2019-05-16T14:06:30.974Z,1.70
2019-05-16T14:11:36.369Z,2.13
2019-05-16T14:16:39.901Z,2.00
2019-05-16T14:21:42.806Z,1.70
2019-05-16T14:26:46.576Z,2.60
2019-05-16T14:31:49.834Z,2.20
2019-05-16T14:36:53.344Z,2.80
2019-05-16T14:41:56.931Z,2.60
2019-05-16T14:46:59.839Z,2.33
2019-05-16T14:52:03.393Z,1.80
2019-05-16T14:57:06.363Z,2.90
2019-05-16T15:02:09.939Z,2.77
2019-05-16T15:07:13.026Z,2.13
2019-05-16T15:12:17.265Z,5.33
2019-05-16T15:17:20.463Z,2.00
2019-05-16T15:22:23.418Z,2.27
2019-05-16T15:27:26.460Z,1.90
2019-05-16T15:32:31.778Z,2.37
2019-05-16T15:37:37.356Z,2.03
2019-05-16T15:42:39.489Z,1.80
2019-05-16T15:47:42.930Z,1.97
2019-05-16T15:52:46.461Z,3.17
2019-05-16T15:57:50.131Z,1.77
2019-05-16T16:02:53.339Z,1.80
2019-05-16T16:07:56.925Z,2.00
2019-05-16T16:13:00.488Z,1.63
2019-05-16T16:18:08.568Z,1.37
2019-05-16T16:23:09.605Z,1.53
2019-05-16T16:28:12.844Z,1.83
2019-05-16T16:33:25.430Z,1.50
2019-05-16T16:38:24.524Z,2.37
2019-05-16T16:43:27.846Z,1.80
2019-05-16T16:48:31.039Z,1.97
2019-05-16T16:53:34.262Z,1.60
2019-05-16T16:58:37.594Z,1.67
2019-05-16T17:03:40.796Z,1.70
2019-05-16T17:08:44.426Z,2.10
2019-05-16T17:13:48.053Z,3.10
2019-05-16T17:18:51.334Z,2.10
2019-05-16T17:23:56.882Z,2.10
2019-05-16T17:29:00.420Z,1.73
2019-05-16T17:34:03.764Z,1.90
2019-05-16T17:39:07.759Z,2.57
2019-05-16T17:44:11.010Z,2.30
2019-05-16T17:49:14.586Z,2.97
2019-05-16T17:54:18.134Z,1.83
2019-05-16T17:59:21.410Z,1.93
2019-05-16T18:04:26.676Z,2.00
2019-05-16T18:09:30.359Z,1.73
2019-05-16T18:14:37.256Z,1.80
2019-05-16T18:19:40.753Z,2.10
2019-05-16T18:24:47.298Z,2.03
2019-05-16T18:29:52.459Z,1.60
2019-05-16T18:34:58.226Z,1.40
2019-05-16T18:40:02.417Z,1.90
2019-05-16T18:45:08.004Z,2.10
2019-05-16T18:50:12.130Z,1.77
2019-05-16T18:55:17.033Z,1.90
2019-05-16T19:00:21.509Z,2.03
2019-05-16T19:05:26.476Z,2.33
2019-05-16T19:10:30.268Z,2.23
2019-05-16T19:15:34.285Z,1.57
2019-05-16T19:20:37.900Z,2.20
2019-05-16T19:25:41.282Z,1.83
2019-05-16T19:30:46.543Z,1.63
2019-05-16T19:35:49.857Z,2.17
2019-05-16T19:40:53.872Z,2.63
2019-05-16T19:45:57.942Z,2.13
2019-05-16T19:51:01.602Z,2.10
2019-05-16T19:56:04.227Z,2.40
2019-05-16T20:01:07.455Z,2.20
2019-05-16T20:06:10.991Z,2.40
2019-05-16T20:11:16.711Z,1.87
2019-05-16T20:16:19.711Z,1.80
2019-05-16T20:21:23.035Z,1.70
2019-05-16T20:26:28.017Z,2.07
2019-05-16T20:31:31.604Z,2.50
2019-05-16T20:36:36.986Z,2.30
2019-05-16T20:41:40.270Z,2.60
2019-05-16T20:46:43.472Z,2.20
2019-05-16T20:51:49.934Z,2.73
2019-05-16T20:56:51.327Z,1.97
2019-05-16T21:01:54.649Z,2.30
2019-05-16T21:07:05.749Z,2.40
2019-05-16T21:12:03.551Z,2.30
2019-05-16T21:17:07.248Z,2.80
2019-05-16T21:22:10.560Z,1.87
2019-05-16T21:27:13.948Z,2.20
2019-05-16T21:32:17.288Z,1.90
2019-05-16T21:37:20.660Z,2.33
2019-05-16T21:42:24.124Z,2.37
2019-05-16T21:47:29.548Z,2.30
2019-05-16T21:52:32.837Z,2.03
2019-05-16T21:57:37.694Z,2.60
2019-05-16T22:02:41.344Z,2.00
2019-05-16T22:07:47.176Z,1.93
2019-05-16T22:12:49.943Z,1.73
2019-05-16T22:17:53.541Z,2.40
2019-05-16T22:22:57.385Z,2.30
2019-05-16T22:28:00.883Z,2.60
2019-05-16T22:33:03.813Z,2.53
2019-05-16T22:38:07.078Z,2.10
2019-05-16T22:43:10.514Z,2.87
2019-05-16T22:48:14.207Z,1.83
2019-05-16T22:53:17.361Z,4.30
2019-05-16T22:58:20.191Z,2.80
2019-05-16T23:03:23.060Z,2.90
2019-05-16T23:08:27.170Z,3.03
2019-05-16T23:13:30.227Z,2.87
2019-05-16T23:18:32.830Z,3.93
2019-05-16T23:23:37.252Z,4.03
2019-05-16T23:28:40.629Z,3.43
2019-05-16T23:33:43.536Z,2.73
2019-05-16T23:38:47.392Z,3.17
2019-05-16T23:43:50.647Z,2.80
2019-05-16T23:48:53.546Z,3.20
2019-05-16T23:53:57.225Z,3.50
2019-05-16T23:59:00.389Z,2.97
